Time;durP1;ratioP1;P1;durP2;ratioP2;P2;SDS_P1;SDS_P2;PMS_P1;PMS_P2;Temp;Humidity;BMP_temperature;BMP_pressure;BME280_temperature;BME280_humidity;BME280_pressure;Samples;Min_cycle;Max_cycle;Signal;HPM_P1;HPM_P2
2023/06/04 00:02:19;;;;;;;6.20;3.33;;;;;;;;;;5069975;28;20048;-59
2023/06/04 00:04:45;;;;;;;6.77;2.90;;;;;;;;;;5069588;28;20052;-59
2023/06/04 00:07:11;;;;;;;6.03;3.30;;;;;;;;;;5069452;28;20391;-59
2023/06/04 00:09:37;;;;;;;6.23;2.60;;;;;;;;;;5069517;28;20087;-59
2023/06/04 00:12:03;;;;;;;9.03;3.20;;;;;;;;;;5069513;28;20048;-59
2023/06/04 00:14:29;;;;;;;4.93;2.77;;;;;;;;;;5068664;28;20048;-59
2023/06/04 00:16:55;;;;;;;7.87;3.00;;;;;;;;;;5069104;28;20070;-59
2023/06/04 00:19:21;;;;;;;6.03;3.23;;;;;;;;;;5069244;28;20095;-59
2023/06/04 00:21:47;;;;;;;8.20;3.47;;;;;;;;;;5069312;28;20075;-59
2023/06/04 00:24:13;;;;;;;6.73;3.70;;;;;;;;;;5069751;28;20243;-59
2023/06/04 00:26:39;;;;;;;6.30;3.47;;;;;;;;;;5068853;28;20048;-59
2023/06/04 00:29:05;;;;;;;7.43;3.63;;;;;;;;;;5068964;28;20476;-59
2023/06/04 00:31:31;;;;;;;7.80;3.20;;;;;;;;;;5069071;28;20094;-59
2023/06/04 00:33:57;;;;;;;7.37;3.43;;;;;;;;;;5068600;28;20601;-59
2023/06/04 00:36:23;;;;;;;7.83;3.53;;;;;;;;;;5069083;28;20088;-59
2023/06/04 00:38:49;;;;;;;11.43;4.27;;;;;;;;;;5069138;28;20128;-59
2023/06/04 00:41:16;;;;;;;8.67;3.73;;;;;;;;;;5067663;28;20187;-59
2023/06/04 00:43:45;;;;;;;6.00;3.57;;;;;;;;;;5068311;28;20052;-59
2023/06/04 00:46:17;;;;;;;7.73;4.37;;;;;;;;;;5068935;28;20446;-59
2023/06/04 00:48:43;;;;;;;7.90;3.83;;;;;;;;;;5069014;28;20049;-59
2023/06/04 00:51:09;;;;;;;10.93;4.03;;;;;;;;;;5067699;28;20508;-59
2023/06/04 00:53:36;;;;;;;9.20;4.37;;;;;;;;;;5068623;28;20070;-59
2023/06/04 00:56:04;;;;;;;9.97;4.20;;;;;;;;;;5068838;28;20097;-59
2023/06/04 00:58:31;;;;;;;10.27;5.00;;;;;;;;;;5068739;28;20498;-59
2023/06/04 01:00:57;;;;;;;7.30;4.33;;;;;;;;;;5068023;28;20275;-59
2023/06/04 01:03:29;;;;;;;9.97;4.60;;;;;;;;;;5067525;28;20085;-59
2023/06/04 01:06:03;;;;;;;8.47;4.57;;;;;;;;;;5068959;28;20099;-59
2023/06/04 01:08:29;;;;;;;14.53;4.93;;;;;;;;;;5068752;28;20045;-59
2023/06/04 01:10:56;;;;;;;10.53;4.47;;;;;;;;;;5067701;28;20144;-59
2023/06/04 01:13:22;;;;;;;11.77;4.90;;;;;;;;;;5067998;28;20056;-59
2023/06/04 01:15:48;;;;;;;10.10;5.50;;;;;;;;;;5067680;28;20037;-59
2023/06/04 01:18:27;;;;;;;12.10;5.43;;;;;;;;;;5067677;28;20044;-59
2023/06/04 01:21:07;;;;;;;10.27;5.20;;;;;;;;;;5068316;28;20570;-59
2023/06/04 01:23:36;;;;;;;9.70;5.17;;;;;;;;;;5067964;28;20047;-59
2023/06/04 01:26:03;;;;;;;9.40;5.10;;;;;;;;;;5068269;28;20131;-59
2023/06/04 01:28:34;;;;;;;13.27;7.00;;;;;;;;;;5068170;28;20048;-59
2023/06/04 01:31:01;;;;;;;13.50;5.77;;;;;;;;;;5067939;28;20052;-59
2023/06/04 01:33:28;;;;;;;11.67;5.50;;;;;;;;;;5067235;28;20056;-59
2023/06/04 01:35:54;;;;;;;14.17;6.70;;;;;;;;;;5068367;28;20048;-59
2023/06/04 01:38:20;;;;;;;12.07;6.00;;;;;;;;;;5068109;28;20510;-59
2023/06/04 01:40:47;;;;;;;10.90;5.30;;;;;;;;;;5068334;28;20063;-59
2023/06/04 01:43:13;;;;;;;18.20;6.63;;;;;;;;;;5068439;28;20426;-59
2023/06/04 01:45:39;;;;;;;12.00;5.80;;;;;;;;;;5067236;28;20044;-59
2023/06/04 01:48:06;;;;;;;13.33;5.53;;;;;;;;;;5067043;28;20123;-59
2023/06/04 01:50:32;;;;;;;18.47;7.27;;;;;;;;;;5066531;28;20049;-59
2023/06/04 01:52:58;;;;;;;15.63;6.30;;;;;;;;;;5067971;28;20044;-59
2023/06/04 01:55:25;;;;;;;17.80;5.97;;;;;;;;;;5067622;28;20456;-59
2023/06/04 01:57:51;;;;;;;14.20;6.23;;;;;;;;;;5068075;28;20049;-59
2023/06/04 02:00:18;;;;;;;12.03;6.30;;;;;;;;;;5068262;28;20040;-59
2023/06/04 02:02:48;;;;;;;12.67;6.10;;;;;;;;;;5067459;28;20044;-59
2023/06/04 02:05:14;;;;;;;14.97;6.70;;;;;;;;;;5067674;28;20080;-59
2023/06/04 02:07:41;;;;;;;12.07;6.30;;;;;;;;;;5068144;28;20040;-59
2023/06/04 02:10:07;;;;;;;18.23;7.80;;;;;;;;;;5067581;28;20123;-59
2023/06/04 02:12:33;;;;;;;16.83;6.97;;;;;;;;;;5067433;28;20041;-59
2023/06/04 02:14:59;;;;;;;11.67;6.00;;;;;;;;;;5067767;28;20037;-59
2023/06/04 02:17:25;;;;;;;15.07;7.67;;;;;;;;;;5067891;28;20043;-59
2023/06/04 02:19:51;;;;;;;12.43;6.10;;;;;;;;;;5067777;28;20052;-59
2023/06/04 02:22:18;;;;;;;15.63;7.23;;;;;;;;;;5067941;28;20040;-59
2023/06/04 02:24:44;;;;;;;16.30;7.87;;;;;;;;;;5067480;28;20048;-59
2023/06/04 02:27:11;;;;;;;15.87;8.10;;;;;;;;;;5067824;28;20117;-59
2023/06/04 02:29:37;;;;;;;16.77;8.50;;;;;;;;;;5033358;28;20080;-59
2023/06/04 02:32:04;;;;;;;20.50;8.30;;;;;;;;;;5066059;28;20056;-59
2023/06/04 02:34:30;;;;;;;22.80;8.67;;;;;;;;;;5049285;28;20052;-59
2023/06/04 02:36:58;;;;;;;16.10;7.47;;;;;;;;;;5068027;28;20076;-59
2023/06/04 02:39:24;;;;;;;12.43;7.00;;;;;;;;;;5067571;28;20053;-59
2023/06/04 02:41:50;;;;;;;19.87;8.53;;;;;;;;;;5067280;28;20045;-59
2023/06/04 02:44:16;;;;;;;18.33;8.57;;;;;;;;;;5068284;28;20565;-59
2023/06/04 02:46:42;;;;;;;16.83;8.83;;;;;;;;;;5067534;28;20499;-59
2023/06/04 02:49:09;;;;;;;21.73;9.40;;;;;;;;;;5067583;28;20043;-59
2023/06/04 02:51:35;;;;;;;18.70;9.40;;;;;;;;;;5067265;28;20513;-59
2023/06/04 02:54:01;;;;;;;23.00;9.70;;;;;;;;;;5066670;28;20044;-59
2023/06/04 02:56:27;;;;;;;26.70;11.13;;;;;;;;;;5066326;28;20044;-59
2023/06/04 02:58:55;;;;;;;22.47;9.87;;;;;;;;;;5070356;28;20040;-59
2023/06/04 03:01:22;;;;;;;17.23;9.03;;;;;;;;;;5071141;28;20402;-59
2023/06/04 03:03:48;;;;;;;16.37;9.77;;;;;;;;;;5070961;28;20051;-59
2023/06/04 03:06:15;;;;;;;20.60;10.30;;;;;;;;;;5071317;28;20037;-59
2023/06/04 03:08:41;;;;;;;21.93;10.87;;;;;;;;;;5070542;28;20091;-59
2023/06/04 03:11:07;;;;;;;27.00;12.43;;;;;;;;;;5070958;28;20037;-59
2023/06/04 03:13:33;;;;;;;27.97;12.93;;;;;;;;;;5070690;28;20075;-59
2023/06/04 03:16:03;;;;;;;24.63;9.97;;;;;;;;;;5070375;28;20044;-59
2023/06/04 03:18:29;;;;;;;26.83;11.70;;;;;;;;;;5070921;28;20052;-59
2023/06/04 03:20:55;;;;;;;23.47;12.70;;;;;;;;;;5070098;28;20055;-59
2023/06/04 03:23:22;;;;;;;19.87;9.73;;;;;;;;;;5069298;28;20048;-59
2023/06/04 03:25:48;;;;;;;27.50;12.30;;;;;;;;;;5070213;28;20608;-59
2023/06/04 03:28:14;;;;;;;22.97;10.87;;;;;;;;;;5070540;28;20572;-59
2023/06/04 03:30:41;;;;;;;20.57;10.53;;;;;;;;;;5070187;28;20075;-59
2023/06/04 03:33:07;;;;;;;25.67;12.80;;;;;;;;;;5069939;28;20053;-59
2023/06/04 03:35:33;;;;;;;18.03;9.97;;;;;;;;;;5069562;28;20052;-59
2023/06/04 03:37:59;;;;;;;28.00;12.83;;;;;;;;;;5069809;28;20545;-59
2023/06/04 03:40:25;;;;;;;32.70;14.03;;;;;;;;;;5070152;28;20075;-59
2023/06/04 03:42:51;;;;;;;23.93;13.33;;;;;;;;;;5069395;28;20133;-59
2023/06/04 03:45:17;;;;;;;26.87;13.80;;;;;;;;;;5069850;28;20561;-59
2023/06/04 03:47:43;;;;;;;36.57;15.47;;;;;;;;;;5069461;28;20049;-59
2023/06/04 03:50:09;;;;;;;29.60;13.53;;;;;;;;;;5069609;28;20127;-59
2023/06/04 03:52:36;;;;;;;29.10;13.67;;;;;;;;;;5069836;28;20807;-59
2023/06/04 03:55:03;;;;;;;37.20;14.03;;;;;;;;;;5069466;28;20453;-59
2023/06/04 03:57:29;;;;;;;23.77;11.83;;;;;;;;;;5068955;28;20040;-59
2023/06/04 03:59:55;;;;;;;26.40;13.60;;;;;;;;;;5069565;28;20041;-60
2023/06/04 04:02:21;;;;;;;19.83;10.57;;;;;;;;;;5069850;28;20059;-59
2023/06/04 04:04:48;;;;;;;23.57;11.40;;;;;;;;;;5069883;28;20045;-60
2023/06/04 04:07:15;;;;;;;38.50;15.90;;;;;;;;;;5069774;28;20048;-59
2023/06/04 04:09:41;;;;;;;32.03;14.67;;;;;;;;;;5068168;28;20078;-59
2023/06/04 04:12:07;;;;;;;27.90;12.83;;;;;;;;;;5068697;28;20109;-59
2023/06/04 04:14:33;;;;;;;31.67;15.20;;;;;;;;;;5069403;28;20151;-59
2023/06/04 04:16:59;;;;;;;23.93;11.27;;;;;;;;;;5069479;28;20044;-59
2023/06/04 04:19:28;;;;;;;34.17;15.00;;;;;;;;;;5069288;28;20586;-59
2023/06/04 04:21:54;;;;;;;22.93;12.50;;;;;;;;;;5069130;28;20052;-59
2023/06/04 04:24:27;;;;;;;35.10;16.00;;;;;;;;;;5068997;28;20453;-59
2023/06/04 04:26:53;;;;;;;34.83;18.02;;;;;;;;;;5068900;28;20047;-59
2023/06/04 04:29:24;;;;;;;27.73;12.43;;;;;;;;;;5069163;28;20074;-59
2023/06/04 04:31:50;;;;;;;28.53;14.27;;;;;;;;;;5066906;28;20060;-59
2023/06/04 04:34:16;;;;;;;30.00;13.60;;;;;;;;;;5068411;28;20058;-59
2023/06/04 04:36:44;;;;;;;39.90;18.90;;;;;;;;;;5068579;28;20560;-59
2023/06/04 04:39:10;;;;;;;36.60;19.03;;;;;;;;;;5068978;28;20040;-59
2023/06/04 04:41:38;;;;;;;35.67;17.83;;;;;;;;;;5050699;28;20045;-59
2023/06/04 04:44:05;;;;;;;38.83;18.87;;;;;;;;;;5068606;28;20044;-59
2023/06/04 04:46:31;;;;;;;41.07;17.90;;;;;;;;;;5067709;28;20068;-60
2023/06/04 04:48:57;;;;;;;44.27;19.63;;;;;;;;;;5066510;28;20071;-60
2023/06/04 04:51:23;;;;;;;31.97;16.00;;;;;;;;;;5068362;28;20253;-59
2023/06/04 04:53:49;;;;;;;25.00;14.77;;;;;;;;;;5068891;28;20040;-59
2023/06/04 04:56:15;;;;;;;30.43;16.90;;;;;;;;;;5068284;28;20063;-60
2023/06/04 04:58:42;;;;;;;32.77;17.37;;;;;;;;;;5067623;28;20488;-59
2023/06/04 05:01:08;;;;;;;34.37;16.53;;;;;;;;;;5068665;28;20051;-59
2023/06/04 05:03:34;;;;;;;36.70;18.27;;;;;;;;;;5067900;28;20484;-60
2023/06/04 05:06:00;;;;;;;35.37;16.23;;;;;;;;;;5068393;28;20049;-59
2023/06/04 05:08:26;;;;;;;28.03;14.87;;;;;;;;;;5068580;28;20044;-59
2023/06/04 05:10:52;;;;;;;26.70;15.17;;;;;;;;;;5068365;28;20051;-59
2023/06/04 05:13:19;;;;;;;40.90;18.37;;;;;;;;;;5067844;28;20044;-59
2023/06/04 05:15:45;;;;;;;25.57;12.90;;;;;;;;;;5068309;28;20068;-60
2023/06/04 05:18:11;;;;;;;28.53;14.87;;;;;;;;;;5050407;28;20063;-59
2023/06/04 05:20:37;;;;;;;31.13;14.20;;;;;;;;;;5067765;28;20461;-59
2023/06/04 05:23:04;;;;;;;29.20;14.40;;;;;;;;;;5067503;28;20044;-60
2023/06/04 05:25:31;;;;;;;33.07;16.57;;;;;;;;;;5067394;28;20066;-60
2023/06/04 05:27:57;;;;;;;24.60;13.70;;;;;;;;;;5067163;28;20124;-60
2023/06/04 05:30:23;;;;;;;37.10;15.90;;;;;;;;;;5067736;28;20072;-60
2023/06/04 05:32:50;;;;;;;30.23;13.83;;;;;;;;;;5049494;28;20430;-60
2023/06/04 05:35:16;;;;;;;26.20;14.70;;;;;;;;;;5064220;28;20118;-60
2023/06/04 05:37:45;;;;;;;32.13;15.73;;;;;;;;;;5066920;28;20071;-60
2023/06/04 05:40:12;;;;;;;35.33;16.07;;;;;;;;;;5067768;28;20094;-60
2023/06/04 05:42:38;;;;;;;25.33;14.43;;;;;;;;;;5068042;28;20097;-59
2023/06/04 05:45:08;;;;;;;31.30;15.43;;;;;;;;;;5067195;28;20391;-60
2023/06/04 05:47:34;;;;;;;35.67;16.07;;;;;;;;;;5067857;28;20057;-59
2023/06/04 05:50:00;;;;;;;31.17;15.80;;;;;;;;;;5066584;28;20048;-59
2023/06/04 05:52:26;;;;;;;28.70;15.20;;;;;;;;;;5067893;28;20044;-60
2023/06/04 05:54:52;;;;;;;28.67;14.83;;;;;;;;;;5066762;28;20049;-60
2023/06/04 05:57:18;;;;;;;28.63;14.70;;;;;;;;;;5067824;28;20453;-60
2023/06/04 05:59:45;;;;;;;20.20;12.07;;;;;;;;;;5067154;28;20055;-60
2023/06/04 06:02:12;;;;;;;26.03;13.90;;;;;;;;;;5067802;28;20049;-60
2023/06/04 06:04:38;;;;;;;24.57;13.10;;;;;;;;;;5067854;28;20056;-60
2023/06/04 06:07:04;;;;;;;28.20;12.83;;;;;;;;;;5067598;28;20052;-60
2023/06/04 06:09:30;;;;;;;30.57;13.73;;;;;;;;;;5067887;28;20082;-60
2023/06/04 06:11:58;;;;;;;21.40;12.40;;;;;;;;;;5067218;28;20044;-60
2023/06/04 06:14:24;;;;;;;25.07;12.83;;;;;;;;;;5067745;28;20095;-60
2023/06/04 06:16:50;;;;;;;26.83;12.87;;;;;;;;;;5066348;28;20094;-60
2023/06/04 06:19:16;;;;;;;24.10;11.70;;;;;;;;;;5067682;28;20048;-60
2023/06/04 06:21:42;;;;;;;26.80;12.90;;;;;;;;;;5067568;28;20067;-60
2023/06/04 06:24:08;;;;;;;18.27;11.10;;;;;;;;;;5067094;28;20393;-60
2023/06/04 06:26:34;;;;;;;19.27;11.80;;;;;;;;;;5067589;28;20118;-60
2023/06/04 06:29:00;;;;;;;19.23;10.67;;;;;;;;;;5066541;28;20222;-60
2023/06/04 06:31:27;;;;;;;20.87;8.93;;;;;;;;;;5067267;28;20512;-60
2023/06/04 06:33:53;;;;;;;18.43;7.80;;;;;;;;;;5071162;28;20056;-60
2023/06/04 06:36:19;;;;;;;17.93;7.87;;;;;;;;;;5070003;28;20465;-60
2023/06/04 06:38:46;;;;;;;14.70;7.87;;;;;;;;;;5069605;28;20052;-60
2023/06/04 06:41:12;;;;;;;21.47;7.57;;;;;;;;;;5070770;28;20127;-59
2023/06/04 06:43:38;;;;;;;14.93;7.03;;;;;;;;;;5069369;28;20067;-60
2023/06/04 06:46:04;;;;;;;12.47;6.57;;;;;;;;;;5070375;28;20052;-60
2023/06/04 06:48:30;;;;;;;13.30;6.13;;;;;;;;;;5070783;28;20557;-60
2023/06/04 06:50:56;;;;;;;15.63;6.50;;;;;;;;;;5070677;28;20406;-60
2023/06/04 06:53:23;;;;;;;15.00;6.37;;;;;;;;;;5071265;28;20044;-60
2023/06/04 06:55:49;;;;;;;11.73;6.07;;;;;;;;;;5070702;28;20051;-60
2023/06/04 06:58:15;;;;;;;10.83;4.90;;;;;;;;;;5071004;28;20052;-60
2023/06/04 07:00:41;;;;;;;14.20;5.30;;;;;;;;;;5070487;28;20055;-60
2023/06/04 07:03:08;;;;;;;10.37;4.47;;;;;;;;;;5070952;28;20435;-60
2023/06/04 07:05:34;;;;;;;11.40;4.50;;;;;;;;;;5070942;28;20040;-60
2023/06/04 07:08:01;;;;;;;7.37;3.53;;;;;;;;;;5069801;28;20045;-60
2023/06/04 07:10:27;;;;;;;10.50;3.70;;;;;;;;;;5070874;28;20045;-60
2023/06/04 07:12:54;;;;;;;8.37;3.10;;;;;;;;;;5070094;28;20045;-60
2023/06/04 07:15:20;;;;;;;9.37;3.73;;;;;;;;;;5070403;28;20075;-60
2023/06/04 07:17:46;;;;;;;6.90;3.40;;;;;;;;;;5070571;28;20590;-60
2023/06/04 07:20:12;;;;;;;8.67;3.67;;;;;;;;;;5069355;28;20040;-60
2023/06/04 07:22:38;;;;;;;10.17;3.50;;;;;;;;;;5050937;28;20118;-60
2023/06/04 07:25:05;;;;;;;8.23;3.10;;;;;;;;;;5069534;28;20288;-60
2023/06/04 07:27:31;;;;;;;7.60;2.97;;;;;;;;;;5070486;28;20151;-60
2023/06/04 07:29:57;;;;;;;10.93;3.70;;;;;;;;;;5052588;28;20514;-60
2023/06/04 07:32:23;;;;;;;8.50;2.70;;;;;;;;;;5065030;28;20208;-60
2023/06/04 07:34:49;;;;;;;7.83;2.60;;;;;;;;;;5057126;28;20049;-60
2023/06/04 07:37:15;;;;;;;9.33;3.17;;;;;;;;;;5060220;28;20494;-60
2023/06/04 07:39:42;;;;;;;10.13;2.70;;;;;;;;;;5068595;28;20442;-60
2023/06/04 07:42:08;;;;;;;6.23;2.50;;;;;;;;;;5063554;28;20186;-59
2023/06/04 07:44:34;;;;;;;10.43;2.53;;;;;;;;;;5069089;28;20203;-60
2023/06/04 07:47:00;;;;;;;7.47;2.33;;;;;;;;;;5068947;28;20120;-60
2023/06/04 07:49:26;;;;;;;8.13;2.27;;;;;;;;;;5067918;28;20080;-60
2023/06/04 07:51:52;;;;;;;6.90;2.33;;;;;;;;;;5069879;28;20102;-60
2023/06/04 07:54:18;;;;;;;5.27;2.20;;;;;;;;;;5068017;28;20053;-60
2023/06/04 07:56:44;;;;;;;7.23;2.00;;;;;;;;;;5068402;28;20040;-60
2023/06/04 07:59:10;;;;;;;5.97;1.90;;;;;;;;;;5069335;28;20044;-60
2023/06/04 08:01:36;;;;;;;5.20;1.90;;;;;;;;;;5069933;28;20036;-60
2023/06/04 08:04:02;;;;;;;5.77;1.87;;;;;;;;;;5057718;28;20570;-60
2023/06/04 08:06:28;;;;;;;6.07;1.97;;;;;;;;;;5070173;28;20046;-60
2023/06/04 08:08:54;;;;;;;8.43;2.20;;;;;;;;;;5064605;28;20078;-60
2023/06/04 08:11:24;;;;;;;4.90;1.67;;;;;;;;;;5069602;28;20045;-60
2023/06/04 08:13:50;;;;;;;5.70;1.83;;;;;;;;;;5070353;28;20051;-60
2023/06/04 08:16:16;;;;;;;9.23;1.93;;;;;;;;;;5069732;28;20048;-60
2023/06/04 08:18:42;;;;;;;5.97;1.77;;;;;;;;;;5069851;28;20049;-60
2023/06/04 08:21:16;;;;;;;6.67;2.10;;;;;;;;;;5068440;28;20044;-60
2023/06/04 08:23:42;;;;;;;4.87;1.63;;;;;;;;;;5051254;28;20048;-60
2023/06/04 08:26:08;;;;;;;6.30;1.83;;;;;;;;;;5049679;28;20049;-60
2023/06/04 08:28:35;;;;;;;4.27;1.27;;;;;;;;;;5049678;28;20442;-60
2023/06/04 08:31:01;;;;;;;8.60;2.03;;;;;;;;;;5056174;28;20052;-60
2023/06/04 08:33:27;;;;;;;5.17;1.30;;;;;;;;;;5067248;28;20060;-60
2023/06/04 08:35:53;;;;;;;6.63;1.90;;;;;;;;;;5067563;28;20072;-60
2023/06/04 08:38:19;;;;;;;3.60;1.50;;;;;;;;;;5067799;28;20102;-60
2023/06/04 08:40:45;;;;;;;8.77;1.83;;;;;;;;;;5067616;28;20049;-60
2023/06/04 08:43:12;;;;;;;5.47;1.60;;;;;;;;;;5066524;28;20426;-60
2023/06/04 08:45:40;;;;;;;4.77;1.60;;;;;;;;;;5067644;28;20067;-60
2023/06/04 08:48:11;;;;;;;5.77;1.50;;;;;;;;;;5066333;28;20109;-60
2023/06/04 08:50:40;;;;;;;4.97;1.23;;;;;;;;;;5067858;28;20468;-60
2023/06/04 08:53:06;;;;;;;5.33;1.57;;;;;;;;;;5067904;28;20075;-60
2023/06/04 08:55:32;;;;;;;4.57;1.20;;;;;;;;;;5066284;28;20090;-60
2023/06/04 08:58:00;;;;;;;5.67;1.40;;;;;;;;;;5068796;28;20085;-60
2023/06/04 09:00:26;;;;;;;3.80;1.10;;;;;;;;;;5067822;28;20073;-60
2023/06/04 09:02:52;;;;;;;3.47;1.00;;;;;;;;;;5068506;28;20044;-60
2023/06/04 09:05:22;;;;;;;2.60;1.10;;;;;;;;;;5067110;28;20098;-60
2023/06/04 09:07:48;;;;;;;4.60;1.37;;;;;;;;;;5068259;28;20049;-60
2023/06/04 09:10:18;;;;;;;4.17;1.50;;;;;;;;;;5068783;28;20484;-61
2023/06/04 09:12:46;;;;;;;2.90;1.20;;;;;;;;;;5068062;28;20053;-60
2023/06/04 09:15:12;;;;;;;4.43;1.42;;;;;;;;;;5068937;28;20036;-60
2023/06/04 09:17:38;;;;;;;4.15;1.33;;;;;;;;;;5068595;28;20052;-61
2023/06/04 09:20:08;;;;;;;4.00;1.20;;;;;;;;;;5068273;28;20052;-61
2023/06/04 09:22:34;;;;;;;6.03;1.50;;;;;;;;;;5066344;28;20127;-61
2023/06/04 09:25:00;;;;;;;3.60;1.50;;;;;;;;;;5068546;28;20452;-61
2023/06/04 09:27:28;;;;;;;4.45;1.33;;;;;;;;;;5068460;28;20044;-60
2023/06/04 09:29:57;;;;;;;6.13;1.52;;;;;;;;;;5068650;28;20048;-61
2023/06/04 09:32:30;;;;;;;5.18;1.60;;;;;;;;;;5066637;28;20210;-61
2023/06/04 09:35:11;;;;;;;3.97;1.38;;;;;;;;;;5068458;28;20060;-61
2023/06/04 09:37:37;;;;;;;2.65;1.10;;;;;;;;;;5050345;28;20620;-61
2023/06/04 09:40:05;;;;;;;6.32;1.80;;;;;;;;;;5068149;28;20503;-61
2023/06/04 09:42:41;;;;;;;5.63;1.60;;;;;;;;;;5068570;28;20066;-60
2023/06/04 09:45:08;;;;;;;5.60;1.42;;;;;;;;;;5068419;28;20082;-61
2023/06/04 09:47:44;;;;;;;3.22;1.63;;;;;;;;;;5068603;28;20044;-60
2023/06/04 09:50:12;;;;;;;2.95;1.02;;;;;;;;;;5068600;28;20043;-61
2023/06/04 09:52:39;;;;;;;4.80;1.80;;;;;;;;;;5068475;28;20071;-60
2023/06/04 09:55:19;;;;;;;6.28;1.85;;;;;;;;;;5067765;28;20471;-60
2023/06/04 09:57:48;;;;;;;3.95;1.50;;;;;;;;;;5068137;28;20091;-61
2023/06/04 10:00:16;;;;;;;5.20;1.58;;;;;;;;;;5063760;28;20053;-61
2023/06/04 10:02:43;;;;;;;6.22;1.90;;;;;;;;;;5067812;28;20066;-61
2023/06/04 10:05:14;;;;;;;6.55;2.10;;;;;;;;;;5068559;28;20378;-61
2023/06/04 10:07:40;;;;;;;7.13;1.83;;;;;;;;;;5071457;28;20045;-61
2023/06/04 10:10:06;;;;;;;3.05;1.27;;;;;;;;;;5072044;28;20040;-61
2023/06/04 10:12:36;;;;;;;3.58;1.42;;;;;;;;;;5071914;28;20139;-60
2023/06/04 10:15:12;;;;;;;3.65;1.40;;;;;;;;;;5071722;28;20518;-60
2023/06/04 10:17:38;;;;;;;4.78;1.60;;;;;;;;;;5071863;28;20055;-61
2023/06/04 10:20:05;;;;;;;3.65;1.50;;;;;;;;;;5071162;28;20422;-60
2023/06/04 10:22:32;;;;;;;6.22;1.55;;;;;;;;;;5053691;28;20052;-60
2023/06/04 10:24:58;;;;;;;3.72;1.27;;;;;;;;;;5070003;28;20045;-61
2023/06/04 10:27:25;;;;;;;5.03;1.90;;;;;;;;;;5068881;28;20087;-60
2023/06/04 10:29:52;;;;;;;4.05;1.20;;;;;;;;;;5069570;28;20045;-60
2023/06/04 10:32:18;;;;;;;4.57;1.33;;;;;;;;;;5068839;28;20553;-61
2023/06/04 10:34:45;;;;;;;3.72;1.83;;;;;;;;;;5070057;28;20056;-60
2023/06/04 10:37:21;;;;;;;4.18;1.40;;;;;;;;;;5069103;28;20448;-61
2023/06/04 10:39:54;;;;;;;6.53;1.70;;;;;;;;;;5069231;28;20040;-60
2023/06/04 10:42:21;;;;;;;;;;;;;;;;;;5071762;28;20426;-60
2023/06/04 10:44:50;;;;;;;4.70;1.27;;;;;;;;;;5069647;28;20010;-61
2023/06/04 10:47:23;;;;;;;2.92;1.13;;;;;;;;;;5069216;28;20525;-61
2023/06/04 10:49:54;;;;;;;4.22;1.30;;;;;;;;;;5068009;28;20047;-61
2023/06/04 10:52:20;;;;;;;6.68;1.60;;;;;;;;;;5068321;28;20037;-60
2023/06/04 10:54:48;;;;;;;4.68;1.77;;;;;;;;;;5068815;28;20240;-61
2023/06/04 10:57:18;;;;;;;4.68;1.70;;;;;;;;;;5068878;28;20775;-61
2023/06/04 10:59:57;;;;;;;3.40;1.65;;;;;;;;;;5066662;28;20053;-61
2023/06/04 11:02:23;;;;;;;3.70;1.65;;;;;;;;;;5068292;28;20247;-61
2023/06/04 11:05:09;;;;;;;6.45;1.38;;;;;;;;;;5067851;28;20044;-61
2023/06/04 11:07:46;;;;;;;6.43;1.42;;;;;;;;;;5060800;28;20049;-61
2023/06/04 11:10:12;;;;;;;3.83;1.50;;;;;;;;;;5068600;28;20082;-60
2023/06/04 11:12:42;;;;;;;2.83;1.10;;;;;;;;;;5068342;28;20044;-61
2023/06/04 11:15:08;;;;;;;3.67;1.50;;;;;;;;;;5067365;28;20102;-61
2023/06/04 11:17:34;;;;;;;3.08;1.40;;;;;;;;;;5068026;28;20041;-61
2023/06/04 11:20:01;;;;;;;6.43;1.33;;;;;;;;;;5068828;28;20048;-61
2023/06/04 11:22:27;;;;;;;5.75;1.50;;;;;;;;;;5066776;28;20342;-61
2023/06/04 11:24:58;;;;;;;4.05;1.80;;;;;;;;;;5069525;28;20033;-61
2023/06/04 11:27:25;;;;;;;4.63;1.73;;;;;;;;;;5070210;28;20506;-60
2023/06/04 11:29:52;;;;;;;3.38;1.42;;;;;;;;;;5069811;28;20143;-61
2023/06/04 11:32:24;;;;;;;3.15;1.60;;;;;;;;;;5070003;28;20052;-60
2023/06/04 11:34:50;;;;;;;5.28;1.80;;;;;;;;;;5065143;28;20053;-60
2023/06/04 11:37:16;;;;;;;3.25;1.40;;;;;;;;;;5068835;28;20402;-61
2023/06/04 11:39:44;;;;;;;5.28;1.70;;;;;;;;;;5070028;28;20040;-60
2023/06/04 11:42:11;;;;;;;4.93;1.50;;;;;;;;;;5069734;28;20041;-61
2023/06/04 11:44:37;;;;;;;3.70;1.40;;;;;;;;;;5069591;28;20044;-61
2023/06/04 11:47:07;;;;;;;5.10;1.83;;;;;;;;;;5069708;28;20123;-61
2023/06/04 11:49:35;;;;;;;3.58;1.48;;;;;;;;;;5068565;28;20135;-61
2023/06/04 11:52:02;;;;;;;4.18;1.40;;;;;;;;;;5069473;28;20047;-61
2023/06/04 11:54:28;;;;;;;4.78;1.30;;;;;;;;;;5071152;28;20460;-61
2023/06/04 11:56:54;;;;;;;4.50;1.83;;;;;;;;;;5067955;28;20068;-61
2023/06/04 11:59:20;;;;;;;3.03;2.35;;;;;;;;;;5066236;28;20600;-61
2023/06/04 12:01:47;;;;;;;3.67;1.73;;;;;;;;;;5067918;28;20032;-61
2023/06/04 12:04:17;;;;;;;5.15;1.58;;;;;;;;;;5068164;28;20040;-61
2023/06/04 12:06:53;;;;;;;4.05;1.40;;;;;;;;;;5067733;28;20071;-61
2023/06/04 12:09:27;;;;;;;2.58;1.10;;;;;;;;;;5067684;28;20047;-61
2023/06/04 12:11:58;;;;;;;5.75;1.88;;;;;;;;;;5065920;28;20040;-61
2023/06/04 12:14:25;;;;;;;3.55;1.25;;;;;;;;;;5065772;28;20083;-61
2023/06/04 12:16:57;;;;;;;4.22;1.73;;;;;;;;;;5066957;28;20114;-61
2023/06/04 12:19:24;;;;;;;4.50;1.50;;;;;;;;;;5065337;28;20044;-61
2023/06/04 12:22:03;;;;;;;5.32;1.63;;;;;;;;;;5066416;28;20498;-62
2023/06/04 12:24:29;;;;;;;2.75;1.30;;;;;;;;;;5067502;28;20048;-60
2023/06/04 12:27:06;;;;;;;3.03;1.20;;;;;;;;;;5068958;28;20048;-61
2023/06/04 12:29:33;;;;;;;4.13;1.58;;;;;;;;;;5069273;28;20051;-61
2023/06/04 12:32:09;;;;;;;3.10;1.25;;;;;;;;;;5069034;28;20059;-61
2023/06/04 12:34:36;;;;;;;2.35;1.40;;;;;;;;;;5068847;28;20052;-61
2023/06/04 12:37:06;;;;;;;3.95;1.45;;;;;;;;;;5067475;28;20080;-61
2023/06/04 12:39:36;;;;;;;3.05;1.33;;;;;;;;;;5067805;28;20040;-61
2023/06/04 12:42:11;;;;;;;2.70;1.40;;;;;;;;;;5068564;28;20406;-61
2023/06/04 12:44:40;;;;;;;3.00;1.27;;;;;;;;;;5068662;28;20040;-62
2023/06/04 12:47:07;;;;;;;3.22;1.13;;;;;;;;;;5064301;28;20048;-61
2023/06/04 12:49:33;;;;;;;3.80;1.20;;;;;;;;;;5063150;28;20092;-61
2023/06/04 12:51:59;;;;;;;4.68;1.45;;;;;;;;;;5068648;28;20363;-61
2023/06/04 12:54:27;;;;;;;4.45;1.60;;;;;;;;;;5068660;28;20051;-61
2023/06/04 12:56:53;;;;;;;4.63;1.73;;;;;;;;;;5068478;28;20044;-61
2023/06/04 12:59:19;;;;;;;2.58;1.20;;;;;;;;;;5068793;28;20040;-62
2023/06/04 13:01:45;;;;;;;2.95;1.33;;;;;;;;;;5068682;28;20067;-61
2023/06/04 13:04:11;;;;;;;4.68;1.42;;;;;;;;;;5068346;28;20490;-61
2023/06/04 13:06:37;;;;;;;2.70;1.23;;;;;;;;;;5068594;28;20051;-61
2023/06/04 13:09:08;;;;;;;2.08;1.00;;;;;;;;;;5068509;28;20119;-62
2023/06/04 13:11:35;;;;;;;3.15;1.40;;;;;;;;;;5067559;28;20076;-61
2023/06/04 13:14:01;;;;;;;2.17;1.20;;;;;;;;;;5068089;28;20097;-61
2023/06/04 13:16:27;;;;;;;3.88;1.60;;;;;;;;;;5067874;28;20040;-61
2023/06/04 13:18:53;;;;;;;3.22;1.40;;;;;;;;;;5068413;28;20070;-61
2023/06/04 13:21:20;;;;;;;4.60;1.40;;;;;;;;;;5068304;28;20040;-61
2023/06/04 13:23:46;;;;;;;2.42;1.35;;;;;;;;;;5068274;28;20066;-61
2023/06/04 13:26:12;;;;;;;2.35;1.20;;;;;;;;;;5068184;28;20041;-61
2023/06/04 13:28:38;;;;;;;4.53;1.35;;;;;;;;;;5067916;28;20489;-61
2023/06/04 13:31:04;;;;;;;2.72;1.40;;;;;;;;;;5067244;28;20586;-61
2023/06/04 13:33:30;;;;;;;5.18;1.40;;;;;;;;;;5067961;28;20430;-61
2023/06/04 13:35:56;;;;;;;3.75;1.48;;;;;;;;;;5068033;28;20048;-61
2023/06/04 13:38:23;;;;;;;2.63;1.20;;;;;;;;;;5067787;28;20107;-61
2023/06/04 13:40:49;;;;;;;3.22;1.45;;;;;;;;;;5065776;28;20143;-61
2023/06/04 13:43:16;;;;;;;3.50;1.50;;;;;;;;;;5057627;28;20041;-61
2023/06/04 13:45:44;;;;;;;5.45;1.40;;;;;;;;;;5067757;28;20083;-61
2023/06/04 13:48:10;;;;;;;3.50;1.33;;;;;;;;;;5067928;28;20083;-61
2023/06/04 13:50:36;;;;;;;2.83;1.50;;;;;;;;;;5067513;28;20045;-61
2023/06/04 13:53:03;;;;;;;2.63;1.20;;;;;;;;;;5067658;28;20052;-61
2023/06/04 13:55:29;;;;;;;3.72;1.50;;;;;;;;;;5067882;28;20498;-61
2023/06/04 13:57:56;;;;;;;3.33;1.55;;;;;;;;;;5067575;28;20586;-61
2023/06/04 14:00:22;;;;;;;3.90;1.30;;;;;;;;;;5067868;28;20084;-61
2023/06/04 14:02:49;;;;;;;4.32;1.50;;;;;;;;;;5068299;28;20063;-61
2023/06/04 14:05:15;;;;;;;4.63;1.75;;;;;;;;;;5068254;28;20067;-61
2023/06/04 14:07:44;;;;;;;4.97;1.48;;;;;;;;;;5066031;28;20171;-61
2023/06/04 14:10:11;;;;;;;8.32;1.83;;;;;;;;;;5066982;28;20047;-61
2023/06/04 14:12:39;;;;;;;3.28;1.50;;;;;;;;;;5067776;28;20047;-61
2023/06/04 14:15:06;;;;;;;4.15;1.65;;;;;;;;;;5067932;28;20060;-61
2023/06/04 14:17:34;;;;;;;3.88;1.58;;;;;;;;;;5068418;28;20390;-61
2023/06/04 14:20:00;;;;;;;3.58;1.33;;;;;;;;;;5068126;28;20486;-62
2023/06/04 14:22:26;;;;;;;5.00;1.67;;;;;;;;;;5064916;28;20521;-62
2023/06/04 14:24:52;;;;;;;4.47;1.77;;;;;;;;;;5067161;28;20427;-61
2023/06/04 14:27:18;;;;;;;4.00;1.85;;;;;;;;;;5067521;28;20048;-61
2023/06/04 14:29:44;;;;;;;4.88;1.65;;;;;;;;;;5067644;28;20048;-61
2023/06/04 14:32:10;;;;;;;4.03;1.40;;;;;;;;;;5067864;28;20057;-62
2023/06/04 14:34:37;;;;;;;4.47;1.45;;;;;;;;;;5067011;28;20048;-61
2023/06/04 14:37:03;;;;;;;4.10;1.67;;;;;;;;;;5047911;28;20037;-62